Beltdiep — PBYF — position and weather

sailwx.info

Track history (hours):
 
Tides and Currents Weather Stations Pressure Air Temp Water Temp Dewpoint Dewpoint Depression Visibility Wind Speed Wind Dir Waves Ship Positions

Beltdiep

Last reported at 2015-Mar-30 17:26 UTC. Time now 2015-Apr-02 03:10 UTC.
Position N 33°42' W 007°31'.

Length 107 m; draft 5.3 m.

Type: Cargo ship. MMSI: 246671000.

Date/timePositionNaut miles runAvg speedWind from/ knotsBaromVisibWave heightAir tempDewpointWater temp
2015-Mar-30 17:26N 33°42' W 007°31'0 0.0
2015-Mar-30 16:13N 33°42' W 007°31'4 5.5
2015-Mar-30 15:29N 33°44' W 007°35'1410.9
2015-Mar-30 14:14N 33°56' W 007°43'710.7
2015-Mar-30 13:33N 34°02' W 007°47'10710.4
2015-Mar-30 03:13N 35°36' W 008°52'710.2
2015-Mar-30 02:33N 35°41' W 008°57'10 9.9
2015-Mar-30 01:34N 35°50' W 009°03'1010.0
2015-Mar-30 00:34N 35°59' W 009°09'1010.0
2015-Mar-29 23:33N 36°07' W 009°15'10 9.9
2015-Mar-29 22:32N 36°16' W 009°21'1210.1
2015-Mar-29 21:20N 36°27' W 009°28'810.2
2015-Mar-29 20:32N 36°34' W 009°33'1010.0
2015-Mar-29 19:33N 36°42' W 009°39'1010.0
2015-Mar-29 18:33N 36°52' W 009°43'1110.1
2015-Mar-29 17:26N 37°03' W 009°46'1010.1
2015-Mar-29 16:26N 37°13' W 009°47'910.1
2015-Mar-29 15:33N 37°22' W 009°49'1110.1
2015-Mar-29 14:30N 37°32' W 009°51'1010.4
2015-Mar-29 13:33N 37°42' W 009°53'1110.4
2015-Mar-29 12:30N 37°53' W 009°55'2510.4
2015-Mar-29 10:04N 38°18' W 009°59'610.0
2015-Mar-29 09:25N 38°24' W 010°00'1110.1
2015-Mar-29 08:21N 38°35' W 010°03'910.2
2015-Mar-29 07:27N 38°44' W 010°05'  
2015-Mar-25 11:33N 50°33' E 000°07'10 9.5
2015-Mar-25 10:33N 50°36' E 000°21'1110.7
2015-Mar-25 09:33N 50°40' E 000°37'1212.2
2015-Mar-25 08:33N 50°47' E 000°53'1312.4
2015-Mar-25 07:32N 50°54' E 001°09'1111.6
2015-Mar-25 06:34N 51°02' E 001°23'1010.0
2015-Mar-25 05:33N 51°08' E 001°34'9 8.7
2015-Mar-25 04:33N 51°14' E 001°45'9 8.8
2015-Mar-25 03:33N 51°20' E 001°54'8 8.2
2015-Mar-25 02:33N 51°23' E 002°07'10 9.9
2015-Mar-25 01:33N 51°22' E 002°23'1111.2
2015-Mar-25 00:33N 51°22' E 002°40'1211.9
2015-Mar-24 23:33N 51°24' E 002°59'1311.7
2015-Mar-24 22:24N 51°24' E 003°21'7 8.3
2015-Mar-24 21:33N 51°25' E 003°32'2 2.5
2015-Mar-24 20:33N 51°26' E 003°36'1010.2
2015-Mar-24 19:34N 51°20' E 003°49'2 2.3
2015-Mar-24 18:33N 51°18' E 003°50'1 1.0
2015-Mar-24 17:32N 51°17' E 003°51'0 0.0
2015-Mar-24 16:29N 51°17' E 003°51'0 0.0
2015-Mar-24 15:28N 51°17' E 003°51'0 0.0
2015-Mar-24 14:31N 51°17' E 003°51'0 0.0
2015-Mar-24 13:24N 51°17' E 003°51'0 0.0
2015-Mar-24 12:27N 51°17' E 003°51'0 0.0
2015-Mar-24 11:32N 51°17' E 003°51'0 0.0
2015-Mar-24 10:33N 51°17' E 003°51'0 0.1
2015-Mar-24 09:33N 51°17' E 003°50'0 0.0
2015-Mar-24 08:33N 51°17' E 003°50'0 0.0
2015-Mar-24 07:33N 51°17' E 003°50'0 0.0
2015-Mar-24 06:34N 51°17' E 003°50'0 0.0
2015-Mar-24 05:33N 51°17' E 003°50'0 0.0
2015-Mar-24 04:33N 51°17' E 003°50'0 0.0
2015-Mar-24 03:33N 51°17' E 003°50'0 0.0
2015-Mar-24 02:33N 51°17' E 003°50'0 0.0
2015-Mar-24 01:31N 51°17' E 003°50'0 0.0
2015-Mar-24 00:33N 51°17' E 003°50'0 0.0
2015-Mar-23 23:30N 51°17' E 003°50'0 0.0
2015-Mar-23 22:33N 51°17' E 003°50'0 0.0
2015-Mar-23 21:33N 51°17' E 003°50'0 0.0
2015-Mar-23 20:32N 51°17' E 003°50'0 0.0
2015-Mar-23 19:33N 51°17' E 003°50'0 0.0
2015-Mar-23 18:33N 51°17' E 003°50'0 0.0
2015-Mar-23 17:33N 51°17' E 003°50'0 0.0
2015-Mar-23 16:33N 51°17' E 003°50'0 0.0
2015-Mar-23 15:33N 51°17' E 003°50'0 0.0
2015-Mar-23 14:33N 51°17' E 003°50'0 0.0
2015-Mar-23 13:33N 51°17' E 003°50'0 0.0
2015-Mar-23 12:33N 51°17' E 003°50'0 0.0
2015-Mar-23 11:33N 51°17' E 003°50'0 0.0
2015-Mar-23 10:33N 51°17' E 003°50'0 0.0
2015-Mar-23 09:33N 51°17' E 003°50'0 0.0
2015-Mar-23 08:33N 51°17' E 003°50'0 0.0
2015-Mar-23 07:33N 51°17' E 003°50'0 0.0
2015-Mar-23 06:33N 51°17' E 003°50'0 0.0
2015-Mar-23 05:33N 51°17' E 003°50'0 0.0
2015-Mar-23 04:32N 51°17' E 003°50'0 0.0
2015-Mar-23 03:33N 51°17' E 003°50'0 0.0
2015-Mar-23 02:33N 51°17' E 003°50'0 0.0
2015-Mar-23 01:33N 51°17' E 003°50'0 0.0
2015-Mar-23 00:33N 51°17' E 003°50'0 0.0
2015-Mar-22 23:32N 51°17' E 003°50'0 0.0
2015-Mar-22 22:33N 51°17' E 003°50'0 0.0
2015-Mar-22 21:31N 51°17' E 003°50'0 0.0
2015-Mar-22 20:32N 51°17' E 003°50'0 0.0
2015-Mar-22 19:33N 51°17' E 003°50'0 0.0
2015-Mar-22 18:33N 51°17' E 003°50'0 0.0
2015-Mar-22 17:33N 51°17' E 003°50'0 0.0
2015-Mar-22 16:33N 51°17' E 003°50'0 0.0
2015-Mar-22 15:33N 51°17' E 003°50'0 0.0
2015-Mar-22 14:33N 51°17' E 003°50'0 0.0
2015-Mar-22 13:33N 51°17' E 003°50'0 0.0
2015-Mar-22 12:33N 51°17' E 003°50'0 0.0
2015-Mar-22 11:33N 51°17' E 003°50'0 0.0
2015-Mar-22 10:33N 51°17' E 003°50'0 0.0
2015-Mar-22 09:33N 51°17' E 003°50'0 0.0
2015-Mar-22 08:33N 51°17' E 003°50'0 0.0
2015-Mar-22 07:34N 51°17' E 003°50'0 0.0
2015-Mar-22 06:34N 51°17' E 003°50'0 0.0
2015-Mar-22 05:33N 51°17' E 003°50'0 0.0
2015-Mar-22 04:34N 51°17' E 003°50'0 0.0
2015-Mar-22 03:34N 51°17' E 003°50'0 0.0
2015-Mar-22 02:33N 51°17' E 003°50'0 0.0
2015-Mar-22 01:34N 51°17' E 003°50'0 0.0
2015-Mar-22 00:34N 51°17' E 003°50'0 0.0
2015-Mar-21 23:33N 51°17' E 003°50'0 0.0
2015-Mar-21 22:33N 51°17' E 003°50'0 0.0
2015-Mar-21 21:33N 51°17' E 003°50'0 0.0
2015-Mar-21 20:33N 51°17' E 003°50'0 0.0
2015-Mar-21 19:33N 51°17' E 003°50'0 0.0
2015-Mar-21 18:33N 51°17' E 003°50'0 0.0
2015-Mar-21 17:33N 51°17' E 003°50'0 0.0
2015-Mar-21 16:33N 51°17' E 003°50'0 0.0
2015-Mar-21 15:33N 51°17' E 003°50'0 0.0
2015-Mar-21 14:33N 51°17' E 003°50'0 0.0
2015-Mar-21 13:33N 51°17' E 003°50'0 0.0
2015-Mar-21 12:34N 51°17' E 003°50'0 0.0
2015-Mar-21 11:33N 51°17' E 003°50'0 0.0
2015-Mar-21 10:33N 51°17' E 003°50'0 0.0
2015-Mar-21 09:33N 51°17' E 003°50'0 0.0
2015-Mar-21 08:33N 51°17' E 003°50'0 0.0
2015-Mar-21 07:33N 51°17' E 003°50'0 0.0
2015-Mar-21 06:33N 51°17' E 003°50'0 0.0
2015-Mar-21 05:33N 51°17' E 003°50'0 0.0
2015-Mar-21 04:33N 51°17' E 003°50'0 0.1
2015-Mar-21 03:34N 51°17' E 003°50'3 3.0
2015-Mar-21 02:33N 51°20' E 003°49'6 5.8
2015-Mar-21 01:33N 51°24' E 003°42'1111.1
2015-Mar-21 00:33N 51°24' E 003°24'1413.6
2015-Mar-20 23:33N 51°24' E 003°03'1212.4
2015-Mar-20 22:33N 51°21' E 002°43'1010.0
2015-Mar-20 21:33N 51°21' E 002°27'9 9.0
2015-Mar-20 20:32N 51°16' E 002°15'8 8.3
2015-Mar-20 19:33N 51°12' E 002°04'8 8.3
2015-Mar-20 18:33N 51°08' E 001°52'8 8.2
2015-Mar-20 17:33N 51°03' E 001°42'  
Track history (hours):
 
Tides and Currents Weather Stations Pressure Air Temp Water Temp Dewpoint Dewpoint Depression Visibility Wind Speed Wind Dir Waves Ship Positions

Beltdiep

Last reported at 2015-Mar-30 17:26 UTC. Time now 2015-Apr-02 03:10 UTC.
Position N 33°42' W 007°31'.

Length 107 m; draft 5.3 m.

Type: Cargo ship. MMSI: 246671000.

Date/timePositionNaut miles runAvg speedWind from/ knotsBaromVisibWave heightAir tempDewpointWater temp
2015-Mar-30 17:26N 33°42' W 007°31'0 0.0
2015-Mar-30 16:13N 33°42' W 007°31'4 5.5
2015-Mar-30 15:29N 33°44' W 007°35'1410.9
2015-Mar-30 14:14N 33°56' W 007°43'710.7
2015-Mar-30 13:33N 34°02' W 007°47'10710.4
2015-Mar-30 03:13N 35°36' W 008°52'710.2
2015-Mar-30 02:33N 35°41' W 008°57'10 9.9
2015-Mar-30 01:34N 35°50' W 009°03'1010.0
2015-Mar-30 00:34N 35°59' W 009°09'1010.0
2015-Mar-29 23:33N 36°07' W 009°15'10 9.9
2015-Mar-29 22:32N 36°16' W 009°21'1210.1
2015-Mar-29 21:20N 36°27' W 009°28'810.2
2015-Mar-29 20:32N 36°34' W 009°33'1010.0
2015-Mar-29 19:33N 36°42' W 009°39'1010.0
2015-Mar-29 18:33N 36°52' W 009°43'1110.1
2015-Mar-29 17:26N 37°03' W 009°46'1010.1
2015-Mar-29 16:26N 37°13' W 009°47'910.1
2015-Mar-29 15:33N 37°22' W 009°49'1110.1
2015-Mar-29 14:30N 37°32' W 009°51'1010.4
2015-Mar-29 13:33N 37°42' W 009°53'1110.4
2015-Mar-29 12:30N 37°53' W 009°55'2510.4
2015-Mar-29 10:04N 38°18' W 009°59'610.0
2015-Mar-29 09:25N 38°24' W 010°00'1110.1
2015-Mar-29 08:21N 38°35' W 010°03'910.2
2015-Mar-29 07:27N 38°44' W 010°05'  
2015-Mar-25 11:33N 50°33' E 000°07'10 9.5
2015-Mar-25 10:33N 50°36' E 000°21'1110.7
2015-Mar-25 09:33N 50°40' E 000°37'1212.2
2015-Mar-25 08:33N 50°47' E 000°53'1312.4
2015-Mar-25 07:32N 50°54' E 001°09'1111.6
2015-Mar-25 06:34N 51°02' E 001°23'1010.0
2015-Mar-25 05:33N 51°08' E 001°34'9 8.7
2015-Mar-25 04:33N 51°14' E 001°45'9 8.8
2015-Mar-25 03:33N 51°20' E 001°54'8 8.2
2015-Mar-25 02:33N 51°23' E 002°07'10 9.9
2015-Mar-25 01:33N 51°22' E 002°23'1111.2
2015-Mar-25 00:33N 51°22' E 002°40'1211.9
2015-Mar-24 23:33N 51°24' E 002°59'1311.7
2015-Mar-24 22:24N 51°24' E 003°21'7 8.3
2015-Mar-24 21:33N 51°25' E 003°32'2 2.5
2015-Mar-24 20:33N 51°26' E 003°36'1010.2
2015-Mar-24 19:34N 51°20' E 003°49'2 2.3
2015-Mar-24 18:33N 51°18' E 003°50'1 1.0
2015-Mar-24 17:32N 51°17' E 003°51'0 0.0
2015-Mar-24 16:29N 51°17' E 003°51'0 0.0
2015-Mar-24 15:28N 51°17' E 003°51'0 0.0
2015-Mar-24 14:31N 51°17' E 003°51'0 0.0
2015-Mar-24 13:24N 51°17' E 003°51'0 0.0
2015-Mar-24 12:27N 51°17' E 003°51'0 0.0
2015-Mar-24 11:32N 51°17' E 003°51'0 0.0
2015-Mar-24 10:33N 51°17' E 003°51'0 0.1
2015-Mar-24 09:33N 51°17' E 003°50'0 0.0
2015-Mar-24 08:33N 51°17' E 003°50'0 0.0
2015-Mar-24 07:33N 51°17' E 003°50'0 0.0
2015-Mar-24 06:34N 51°17' E 003°50'0 0.0
2015-Mar-24 05:33N 51°17' E 003°50'0 0.0
2015-Mar-24 04:33N 51°17' E 003°50'0 0.0
2015-Mar-24 03:33N 51°17' E 003°50'0 0.0
2015-Mar-24 02:33N 51°17' E 003°50'0 0.0
2015-Mar-24 01:31N 51°17' E 003°50'0 0.0
2015-Mar-24 00:33N 51°17' E 003°50'0 0.0
2015-Mar-23 23:30N 51°17' E 003°50'0 0.0
2015-Mar-23 22:33N 51°17' E 003°50'0 0.0
2015-Mar-23 21:33N 51°17' E 003°50'0 0.0
2015-Mar-23 20:32N 51°17' E 003°50'0 0.0
2015-Mar-23 19:33N 51°17' E 003°50'0 0.0
2015-Mar-23 18:33N 51°17' E 003°50'0 0.0
2015-Mar-23 17:33N 51°17' E 003°50'0 0.0
2015-Mar-23 16:33N 51°17' E 003°50'0 0.0
2015-Mar-23 15:33N 51°17' E 003°50'0 0.0
2015-Mar-23 14:33N 51°17' E 003°50'0 0.0
2015-Mar-23 13:33N 51°17' E 003°50'0 0.0
2015-Mar-23 12:33N 51°17' E 003°50'0 0.0
2015-Mar-23 11:33N 51°17' E 003°50'0 0.0
2015-Mar-23 10:33N 51°17' E 003°50'0 0.0
2015-Mar-23 09:33N 51°17' E 003°50'0 0.0
2015-Mar-23 08:33N 51°17' E 003°50'0 0.0
2015-Mar-23 07:33N 51°17' E 003°50'0 0.0
2015-Mar-23 06:33N 51°17' E 003°50'0 0.0
2015-Mar-23 05:33N 51°17' E 003°50'0 0.0
2015-Mar-23 04:32N 51°17' E 003°50'0 0.0
2015-Mar-23 03:33N 51°17' E 003°50'0 0.0
2015-Mar-23 02:33N 51°17' E 003°50'0 0.0
2015-Mar-23 01:33N 51°17' E 003°50'0 0.0
2015-Mar-23 00:33N 51°17' E 003°50'0 0.0
2015-Mar-22 23:32N 51°17' E 003°50'0 0.0
2015-Mar-22 22:33N 51°17' E 003°50'0 0.0
2015-Mar-22 21:31N 51°17' E 003°50'0 0.0
2015-Mar-22 20:32N 51°17' E 003°50'0 0.0
2015-Mar-22 19:33N 51°17' E 003°50'0 0.0
2015-Mar-22 18:33N 51°17' E 003°50'0 0.0
2015-Mar-22 17:33N 51°17' E 003°50'0 0.0
2015-Mar-22 16:33N 51°17' E 003°50'0 0.0
2015-Mar-22 15:33N 51°17' E 003°50'0 0.0
2015-Mar-22 14:33N 51°17' E 003°50'0 0.0
2015-Mar-22 13:33N 51°17' E 003°50'0 0.0
2015-Mar-22 12:33N 51°17' E 003°50'0 0.0
2015-Mar-22 11:33N 51°17' E 003°50'0 0.0
2015-Mar-22 10:33N 51°17' E 003°50'0 0.0
2015-Mar-22 09:33N 51°17' E 003°50'0 0.0
2015-Mar-22 08:33N 51°17' E 003°50'0 0.0
2015-Mar-22 07:34N 51°17' E 003°50'0 0.0
2015-Mar-22 06:34N 51°17' E 003°50'0 0.0
2015-Mar-22 05:33N 51°17' E 003°50'0 0.0
2015-Mar-22 04:34N 51°17' E 003°50'0 0.0
2015-Mar-22 03:34N 51°17' E 003°50'0 0.0
2015-Mar-22 02:33N 51°17' E 003°50'0 0.0
2015-Mar-22 01:34N 51°17' E 003°50'0 0.0
2015-Mar-22 00:34N 51°17' E 003°50'0 0.0
2015-Mar-21 23:33N 51°17' E 003°50'0 0.0
2015-Mar-21 22:33N 51°17' E 003°50'0 0.0
2015-Mar-21 21:33N 51°17' E 003°50'0 0.0
2015-Mar-21 20:33N 51°17' E 003°50'0 0.0
2015-Mar-21 19:33N 51°17' E 003°50'0 0.0
2015-Mar-21 18:33N 51°17' E 003°50'0 0.0
2015-Mar-21 17:33N 51°17' E 003°50'0 0.0
2015-Mar-21 16:33N 51°17' E 003°50'0 0.0
2015-Mar-21 15:33N 51°17' E 003°50'0 0.0
2015-Mar-21 14:33N 51°17' E 003°50'0 0.0
2015-Mar-21 13:33N 51°17' E 003°50'0 0.0
2015-Mar-21 12:34N 51°17' E 003°50'0 0.0
2015-Mar-21 11:33N 51°17' E 003°50'0 0.0
2015-Mar-21 10:33N 51°17' E 003°50'0 0.0
2015-Mar-21 09:33N 51°17' E 003°50'0 0.0
2015-Mar-21 08:33N 51°17' E 003°50'0 0.0
2015-Mar-21 07:33N 51°17' E 003°50'0 0.0
2015-Mar-21 06:33N 51°17' E 003°50'0 0.0
2015-Mar-21 05:33N 51°17' E 003°50'0 0.0
2015-Mar-21 04:33N 51°17' E 003°50'0 0.1
2015-Mar-21 03:34N 51°17' E 003°50'3 3.0
2015-Mar-21 02:33N 51°20' E 003°49'6 5.8
2015-Mar-21 01:33N 51°24' E 003°42'1111.1
2015-Mar-21 00:33N 51°24' E 003°24'1413.6
2015-Mar-20 23:33N 51°24' E 003°03'1212.4
2015-Mar-20 22:33N 51°21' E 002°43'1010.0
2015-Mar-20 21:33N 51°21' E 002°27'9 9.0
2015-Mar-20 20:32N 51°16' E 002°15'8 8.3
2015-Mar-20 19:33N 51°12' E 002°04'8 8.3
2015-Mar-20 18:33N 51°08' E 001°52'8 8.2
2015-Mar-20 17:33N 51°03' E 001°42'  

Dump ship's entire track history